sensor_id;sensor_type;location;lat;lon;timestamp;P1;durP1;ratioP1;P2;durP2;ratioP2
37164;SDS011;23057;48.554;14.454;2023-12-20T00:00:42;3.75;;;2.33;;
37164;SDS011;23057;48.554;14.454;2023-12-20T00:03:12;3.08;;;2.28;;
37164;SDS011;23057;48.554;14.454;2023-12-20T00:05:43;5.80;;;2.47;;
37164;SDS011;23057;48.554;14.454;2023-12-20T00:08:16;3.33;;;2.25;;
37164;SDS011;23057;48.554;14.454;2023-12-20T00:10:47;3.95;;;2.42;;
37164;SDS011;23057;48.554;14.454;2023-12-20T00:13:17;5.65;;;2.40;;
37164;SDS011;23057;48.554;14.454;2023-12-20T00:15:48;3.20;;;2.50;;
37164;SDS011;23057;48.554;14.454;2023-12-20T00:18:19;4.82;;;4.03;;
37164;SDS011;23057;48.554;14.454;2023-12-20T00:20:50;5.72;;;2.90;;
37164;SDS011;23057;48.554;14.454;2023-12-20T00:23:21;5.50;;;2.90;;
37164;SDS011;23057;48.554;14.454;2023-12-20T00:25:53;4.28;;;2.80;;
37164;SDS011;23057;48.554;14.454;2023-12-20T00:28:24;4.60;;;3.47;;
37164;SDS011;23057;48.554;14.454;2023-12-20T00:30:55;4.07;;;2.78;;
37164;SDS011;23057;48.554;14.454;2023-12-20T00:33:26;4.85;;;3.28;;
37164;SDS011;23057;48.554;14.454;2023-12-20T00:35:57;3.58;;;2.65;;
37164;SDS011;23057;48.554;14.454;2023-12-20T00:38:28;4.53;;;3.10;;
37164;SDS011;23057;48.554;14.454;2023-12-20T00:40:59;4.85;;;2.80;;
37164;SDS011;23057;48.554;14.454;2023-12-20T00:43:29;4.53;;;2.65;;
37164;SDS011;23057;48.554;14.454;2023-12-20T00:46:00;4.63;;;2.83;;
37164;SDS011;23057;48.554;14.454;2023-12-20T00:48:31;4.50;;;2.40;;
37164;SDS011;23057;48.554;14.454;2023-12-20T00:51:02;5.95;;;2.72;;
37164;SDS011;23057;48.554;14.454;2023-12-20T00:53:33;3.88;;;2.47;;
37164;SDS011;23057;48.554;14.454;2023-12-20T00:56:04;4.70;;;2.95;;
37164;SDS011;23057;48.554;14.454;2023-12-20T00:58:35;4.72;;;2.97;;
37164;SDS011;23057;48.554;14.454;2023-12-20T01:01:06;3.42;;;2.70;;
37164;SDS011;23057;48.554;14.454;2023-12-20T01:03:37;4.70;;;3.10;;
37164;SDS011;23057;48.554;14.454;2023-12-20T01:06:07;6.88;;;2.88;;
37164;SDS011;23057;48.554;14.454;2023-12-20T01:08:38;3.33;;;2.28;;
37164;SDS011;23057;48.554;14.454;2023-12-20T01:11:09;3.28;;;2.38;;
37164;SDS011;23057;48.554;14.454;2023-12-20T01:13:40;6.72;;;2.80;;
37164;SDS011;23057;48.554;14.454;2023-12-20T01:16:11;4.97;;;2.83;;
37164;SDS011;23057;48.554;14.454;2023-12-20T01:18:42;2.67;;;2.13;;
37164;SDS011;23057;48.554;14.454;2023-12-20T01:21:13;3.88;;;2.55;;
37164;SDS011;23057;48.554;14.454;2023-12-20T01:23:44;4.88;;;2.50;;
37164;SDS011;23057;48.554;14.454;2023-12-20T01:26:14;3.53;;;2.22;;
37164;SDS011;23057;48.554;14.454;2023-12-20T01:28:45;6.55;;;2.78;;
37164;SDS011;23057;48.554;14.454;2023-12-20T01:31:16;3.50;;;2.85;;
37164;SDS011;23057;48.554;14.454;2023-12-20T01:33:47;5.90;;;2.90;;
37164;SDS011;23057;48.554;14.454;2023-12-20T01:36:18;4.47;;;2.45;;
37164;SDS011;23057;48.554;14.454;2023-12-20T01:38:49;4.47;;;2.72;;
37164;SDS011;23057;48.554;14.454;2023-12-20T01:41:20;5.68;;;2.72;;
37164;SDS011;23057;48.554;14.454;2023-12-20T01:43:51;5.07;;;3.38;;
37164;SDS011;23057;48.554;14.454;2023-12-20T01:46:23;5.22;;;3.05;;
37164;SDS011;23057;48.554;14.454;2023-12-20T01:48:54;4.47;;;2.95;;
37164;SDS011;23057;48.554;14.454;2023-12-20T01:51:25;5.88;;;2.78;;
37164;SDS011;23057;48.554;14.454;2023-12-20T01:53:58;4.18;;;2.92;;
37164;SDS011;23057;48.554;14.454;2023-12-20T01:56:30;4.38;;;3.10;;
37164;SDS011;23057;48.554;14.454;2023-12-20T01:59:03;6.72;;;3.40;;
37164;SDS011;23057;48.554;14.454;2023-12-20T02:01:34;5.45;;;3.65;;
37164;SDS011;23057;48.554;14.454;2023-12-20T02:04:06;6.53;;;3.90;;
37164;SDS011;23057;48.554;14.454;2023-12-20T02:06:37;6.07;;;4.32;;
37164;SDS011;23057;48.554;14.454;2023-12-20T02:09:10;5.22;;;3.70;;
37164;SDS011;23057;48.554;14.454;2023-12-20T02:11:41;11.32;;;4.45;;
37164;SDS011;23057;48.554;14.454;2023-12-20T02:14:13;6.50;;;3.97;;
37164;SDS011;23057;48.554;14.454;2023-12-20T02:16:44;6.38;;;3.85;;
37164;SDS011;23057;48.554;14.454;2023-12-20T02:19:15;7.53;;;4.22;;
37164;SDS011;23057;48.554;14.454;2023-12-20T02:21:50;5.07;;;3.90;;
37164;SDS011;23057;48.554;14.454;2023-12-20T02:24:44;6.38;;;4.20;;
37164;SDS011;23057;48.554;14.454;2023-12-20T02:27:15;5.72;;;4.00;;
37164;SDS011;23057;48.554;14.454;2023-12-20T02:29:50;5.07;;;3.95;;
37164;SDS011;23057;48.554;14.454;2023-12-20T02:32:21;5.25;;;3.63;;
37164;SDS011;23057;48.554;14.454;2023-12-20T02:34:57;6.22;;;4.10;;
37164;SDS011;23057;48.554;14.454;2023-12-20T02:37:28;7.05;;;4.32;;
37164;SDS011;23057;48.554;14.454;2023-12-20T02:39:59;7.22;;;4.15;;
37164;SDS011;23057;48.554;14.454;2023-12-20T02:42:30;7.78;;;5.10;;
37164;SDS011;23057;48.554;14.454;2023-12-20T02:45:01;5.90;;;4.13;;
37164;SDS011;23057;48.554;14.454;2023-12-20T02:47:32;7.47;;;5.10;;
37164;SDS011;23057;48.554;14.454;2023-12-20T02:50:03;6.78;;;4.80;;
37164;SDS011;23057;48.554;14.454;2023-12-20T02:52:34;8.55;;;6.00;;
37164;SDS011;23057;48.554;14.454;2023-12-20T02:55:05;7.70;;;5.13;;
37164;SDS011;23057;48.554;14.454;2023-12-20T02:57:36;8.40;;;6.30;;
37164;SDS011;23057;48.554;14.454;2023-12-20T03:00:11;8.52;;;5.43;;
37164;SDS011;23057;48.554;14.454;2023-12-20T03:02:42;9.50;;;6.15;;
37164;SDS011;23057;48.554;14.454;2023-12-20T03:05:13;8.70;;;6.78;;
37164;SDS011;23057;48.554;14.454;2023-12-20T03:07:44;7.65;;;5.53;;
37164;SDS011;23057;48.554;14.454;2023-12-20T03:10:15;9.50;;;6.13;;
37164;SDS011;23057;48.554;14.454;2023-12-20T03:12:46;7.13;;;4.88;;
37164;SDS011;23057;48.554;14.454;2023-12-20T03:15:17;10.30;;;5.18;;
37164;SDS011;23057;48.554;14.454;2023-12-20T03:17:48;7.88;;;5.95;;
37164;SDS011;23057;48.554;14.454;2023-12-20T03:20:19;10.00;;;6.35;;
37164;SDS011;23057;48.554;14.454;2023-12-20T03:22:49;8.70;;;5.55;;
37164;SDS011;23057;48.554;14.454;2023-12-20T03:25:20;8.30;;;5.38;;
37164;SDS011;23057;48.554;14.454;2023-12-20T03:27:52;7.85;;;4.70;;
37164;SDS011;23057;48.554;14.454;2023-12-20T03:30:23;6.47;;;5.03;;
37164;SDS011;23057;48.554;14.454;2023-12-20T03:32:54;8.65;;;5.13;;
37164;SDS011;23057;48.554;14.454;2023-12-20T03:35:25;8.40;;;4.93;;
37164;SDS011;23057;48.554;14.454;2023-12-20T03:37:55;7.53;;;4.88;;
37164;SDS011;23057;48.554;14.454;2023-12-20T03:40:27;10.20;;;5.90;;
37164;SDS011;23057;48.554;14.454;2023-12-20T03:42:57;11.88;;;5.22;;
37164;SDS011;23057;48.554;14.454;2023-12-20T03:45:28;10.25;;;5.07;;
37164;SDS011;23057;48.554;14.454;2023-12-20T03:47:59;9.07;;;5.60;;
37164;SDS011;23057;48.554;14.454;2023-12-20T03:50:30;13.13;;;5.68;;
37164;SDS011;23057;48.554;14.454;2023-12-20T03:53:01;9.13;;;5.95;;
37164;SDS011;23057;48.554;14.454;2023-12-20T03:55:32;9.00;;;7.10;;
37164;SDS011;23057;48.554;14.454;2023-12-20T03:58:03;8.20;;;5.60;;
37164;SDS011;23057;48.554;14.454;2023-12-20T04:00:34;10.30;;;6.35;;
37164;SDS011;23057;48.554;14.454;2023-12-20T04:03:05;10.68;;;5.78;;
37164;SDS011;23057;48.554;14.454;2023-12-20T04:05:37;8.57;;;5.70;;
37164;SDS011;23057;48.554;14.454;2023-12-20T04:08:08;9.20;;;5.28;;
37164;SDS011;23057;48.554;14.454;2023-12-20T04:10:39;8.32;;;5.10;;
37164;SDS011;23057;48.554;14.454;2023-12-20T04:13:10;9.25;;;5.18;;
37164;SDS011;23057;48.554;14.454;2023-12-20T04:15:41;8.80;;;5.18;;
37164;SDS011;23057;48.554;14.454;2023-12-20T04:18:12;12.10;;;5.65;;
37164;SDS011;23057;48.554;14.454;2023-12-20T04:20:43;9.30;;;5.00;;
37164;SDS011;23057;48.554;14.454;2023-12-20T04:23:14;8.82;;;5.07;;
37164;SDS011;23057;48.554;14.454;2023-12-20T04:25:46;5.85;;;4.22;;
37164;SDS011;23057;48.554;14.454;2023-12-20T04:28:17;6.07;;;4.70;;
37164;SDS011;23057;48.554;14.454;2023-12-20T04:30:48;9.48;;;5.32;;
37164;SDS011;23057;48.554;14.454;2023-12-20T04:33:19;8.15;;;4.72;;
37164;SDS011;23057;48.554;14.454;2023-12-20T04:35:50;8.18;;;4.53;;
37164;SDS011;23057;48.554;14.454;2023-12-20T04:38:21;7.60;;;4.97;;
37164;SDS011;23057;48.554;14.454;2023-12-20T04:40:52;7.22;;;4.70;;
37164;SDS011;23057;48.554;14.454;2023-12-20T04:43:23;6.60;;;4.28;;
37164;SDS011;23057;48.554;14.454;2023-12-20T04:45:54;7.72;;;4.40;;
37164;SDS011;23057;48.554;14.454;2023-12-20T04:48:24;7.00;;;4.65;;
37164;SDS011;23057;48.554;14.454;2023-12-20T04:50:55;6.35;;;3.97;;
37164;SDS011;23057;48.554;14.454;2023-12-20T04:53:26;8.93;;;4.50;;
37164;SDS011;23057;48.554;14.454;2023-12-20T04:55:57;5.63;;;4.18;;
37164;SDS011;23057;48.554;14.454;2023-12-20T04:58:28;6.18;;;3.92;;
37164;SDS011;23057;48.554;14.454;2023-12-20T05:00:59;6.63;;;3.63;;
37164;SDS011;23057;48.554;14.454;2023-12-20T05:03:31;6.53;;;4.70;;
37164;SDS011;23057;48.554;14.454;2023-12-20T05:06:03;5.68;;;4.13;;
37164;SDS011;23057;48.554;14.454;2023-12-20T05:08:34;6.78;;;4.38;;
37164;SDS011;23057;48.554;14.454;2023-12-20T05:11:05;5.50;;;4.05;;
37164;SDS011;23057;48.554;14.454;2023-12-20T05:13:35;9.40;;;5.15;;
37164;SDS011;23057;48.554;14.454;2023-12-20T05:16:06;7.50;;;5.05;;
37164;SDS011;23057;48.554;14.454;2023-12-20T05:18:37;8.50;;;4.78;;
37164;SDS011;23057;48.554;14.454;2023-12-20T05:21:08;7.30;;;4.88;;
37164;SDS011;23057;48.554;14.454;2023-12-20T05:23:39;8.90;;;5.07;;
37164;SDS011;23057;48.554;14.454;2023-12-20T05:26:10;7.85;;;4.20;;
37164;SDS011;23057;48.554;14.454;2023-12-20T05:28:41;6.70;;;4.05;;
37164;SDS011;23057;48.554;14.454;2023-12-20T05:31:11;6.10;;;4.25;;
37164;SDS011;23057;48.554;14.454;2023-12-20T05:33:42;7.82;;;4.35;;
37164;SDS011;23057;48.554;14.454;2023-12-20T05:36:13;6.47;;;4.55;;
37164;SDS011;23057;48.554;14.454;2023-12-20T05:38:45;6.60;;;4.70;;
37164;SDS011;23057;48.554;14.454;2023-12-20T05:41:15;7.30;;;4.00;;
37164;SDS011;23057;48.554;14.454;2023-12-20T05:43:46;6.97;;;4.63;;
37164;SDS011;23057;48.554;14.454;2023-12-20T05:46:17;6.38;;;4.82;;
37164;SDS011;23057;48.554;14.454;2023-12-20T05:48:48;5.97;;;4.22;;
37164;SDS011;23057;48.554;14.454;2023-12-20T05:51:19;5.82;;;4.40;;
37164;SDS011;23057;48.554;14.454;2023-12-20T05:53:50;7.88;;;4.20;;
37164;SDS011;23057;48.554;14.454;2023-12-20T05:56:21;6.38;;;4.32;;
37164;SDS011;23057;48.554;14.454;2023-12-20T05:58:52;9.38;;;4.13;;
37164;SDS011;23057;48.554;14.454;2023-12-20T06:01:23;6.57;;;4.53;;
37164;SDS011;23057;48.554;14.454;2023-12-20T06:03:54;6.63;;;4.82;;
37164;SDS011;23057;48.554;14.454;2023-12-20T06:06:24;6.07;;;4.38;;
37164;SDS011;23057;48.554;14.454;2023-12-20T06:08:55;6.75;;;4.88;;
37164;SDS011;23057;48.554;14.454;2023-12-20T06:11:26;8.68;;;5.25;;
37164;SDS011;23057;48.554;14.454;2023-12-20T06:13:57;6.20;;;4.72;;
37164;SDS011;23057;48.554;14.454;2023-12-20T06:16:28;6.45;;;4.47;;
37164;SDS011;23057;48.554;14.454;2023-12-20T06:18:59;7.78;;;4.90;;
37164;SDS011;23057;48.554;14.454;2023-12-20T06:21:30;9.25;;;4.90;;
37164;SDS011;23057;48.554;14.454;2023-12-20T06:24:00;6.45;;;4.65;;
37164;SDS011;23057;48.554;14.454;2023-12-20T06:26:31;7.05;;;4.72;;
37164;SDS011;23057;48.554;14.454;2023-12-20T06:29:02;7.53;;;4.55;;
37164;SDS011;23057;48.554;14.454;2023-12-20T06:31:33;9.10;;;4.95;;
37164;SDS011;23057;48.554;14.454;2023-12-20T06:34:04;8.50;;;4.65;;
37164;SDS011;23057;48.554;14.454;2023-12-20T06:36:35;6.40;;;4.78;;
37164;SDS011;23057;48.554;14.454;2023-12-20T06:39:05;6.95;;;4.90;;
37164;SDS011;23057;48.554;14.454;2023-12-20T06:41:36;6.38;;;5.07;;
37164;SDS011;23057;48.554;14.454;2023-12-20T06:44:07;6.53;;;4.30;;
37164;SDS011;23057;48.554;14.454;2023-12-20T06:46:38;7.38;;;4.90;;
37164;SDS011;23057;48.554;14.454;2023-12-20T06:49:08;7.53;;;4.50;;
37164;SDS011;23057;48.554;14.454;2023-12-20T06:51:39;5.72;;;4.28;;
37164;SDS011;23057;48.554;14.454;2023-12-20T06:54:10;6.25;;;4.15;;
37164;SDS011;23057;48.554;14.454;2023-12-20T06:56:41;6.28;;;3.85;;
37164;SDS011;23057;48.554;14.454;2023-12-20T06:59:12;5.07;;;3.70;;
37164;SDS011;23057;48.554;14.454;2023-12-20T07:01:45;6.82;;;4.25;;
37164;SDS011;23057;48.554;14.454;2023-12-20T07:04:19;6.47;;;4.40;;
37164;SDS011;23057;48.554;14.454;2023-12-20T07:06:51;6.15;;;4.25;;
37164;SDS011;23057;48.554;14.454;2023-12-20T07:09:26;6.30;;;4.60;;
37164;SDS011;23057;48.554;14.454;2023-12-20T07:11:57;6.78;;;4.70;;
37164;SDS011;23057;48.554;14.454;2023-12-20T07:14:28;7.82;;;4.43;;
37164;SDS011;23057;48.554;14.454;2023-12-20T07:16:59;6.53;;;4.43;;
37164;SDS011;23057;48.554;14.454;2023-12-20T07:19:30;7.32;;;4.50;;
37164;SDS011;23057;48.554;14.454;2023-12-20T07:22:00;5.78;;;4.18;;
37164;SDS011;23057;48.554;14.454;2023-12-20T07:24:31;6.00;;;4.40;;
37164;SDS011;23057;48.554;14.454;2023-12-20T07:27:03;11.95;;;6.75;;
37164;SDS011;23057;48.554;14.454;2023-12-20T07:29:34;6.30;;;3.92;;
37164;SDS011;23057;48.554;14.454;2023-12-20T07:32:05;6.20;;;3.78;;
37164;SDS011;23057;48.554;14.454;2023-12-20T07:34:36;6.15;;;4.45;;
37164;SDS011;23057;48.554;14.454;2023-12-20T07:37:07;4.28;;;3.55;;
37164;SDS011;23057;48.554;14.454;2023-12-20T07:39:40;5.00;;;3.38;;
37164;SDS011;23057;48.554;14.454;2023-12-20T07:42:11;4.38;;;3.15;;
37164;SDS011;23057;48.554;14.454;2023-12-20T07:44:42;4.35;;;3.13;;
37164;SDS011;23057;48.554;14.454;2023-12-20T07:47:13;5.43;;;3.67;;
37164;SDS011;23057;48.554;14.454;2023-12-20T07:49:49;5.00;;;3.15;;
37164;SDS011;23057;48.554;14.454;2023-12-20T07:52:24;4.45;;;3.08;;
37164;SDS011;23057;48.554;14.454;2023-12-20T07:54:55;4.22;;;2.47;;
37164;SDS011;23057;48.554;14.454;2023-12-20T07:57:28;3.25;;;2.45;;
37164;SDS011;23057;48.554;14.454;2023-12-20T08:00:00;3.10;;;2.10;;
37164;SDS011;23057;48.554;14.454;2023-12-20T08:02:33;1.92;;;1.63;;
37164;SDS011;23057;48.554;14.454;2023-12-20T08:05:04;2.45;;;1.80;;
37164;SDS011;23057;48.554;14.454;2023-12-20T08:07:35;2.45;;;1.40;;
37164;SDS011;23057;48.554;14.454;2023-12-20T08:10:06;2.05;;;1.70;;
37164;SDS011;23057;48.554;14.454;2023-12-20T08:12:38;2.05;;;1.63;;
37164;SDS011;23057;48.554;14.454;2023-12-20T08:15:09;1.90;;;1.65;;
37164;SDS011;23057;48.554;14.454;2023-12-20T08:17:40;1.83;;;1.60;;
37164;SDS011;23057;48.554;14.454;2023-12-20T08:20:12;1.52;;;1.42;;
37164;SDS011;23057;48.554;14.454;2023-12-20T08:22:43;1.60;;;1.40;;
37164;SDS011;23057;48.554;14.454;2023-12-20T08:25:13;1.90;;;1.70;;
37164;SDS011;23057;48.554;14.454;2023-12-20T08:27:45;1.90;;;1.58;;
37164;SDS011;23057;48.554;14.454;2023-12-20T08:30:16;2.03;;;1.70;;
37164;SDS011;23057;48.554;14.454;2023-12-20T08:32:50;2.50;;;1.83;;
37164;SDS011;23057;48.554;14.454;2023-12-20T08:35:21;1.73;;;1.50;;
37164;SDS011;23057;48.554;14.454;2023-12-20T08:37:52;1.50;;;1.40;;
37164;SDS011;23057;48.554;14.454;2023-12-20T08:40:23;2.03;;;1.67;;
37164;SDS011;23057;48.554;14.454;2023-12-20T08:42:53;2.22;;;1.70;;
37164;SDS011;23057;48.554;14.454;2023-12-20T08:45:25;1.92;;;1.52;;
37164;SDS011;23057;48.554;14.454;2023-12-20T08:47:56;2.05;;;1.23;;
37164;SDS011;23057;48.554;14.454;2023-12-20T08:50:26;2.10;;;1.75;;
37164;SDS011;23057;48.554;14.454;2023-12-20T08:52:57;1.50;;;1.40;;
37164;SDS011;23057;48.554;14.454;2023-12-20T08:55:28;2.13;;;1.60;;
37164;SDS011;23057;48.554;14.454;2023-12-20T08:58:00;2.20;;;1.65;;
37164;SDS011;23057;48.554;14.454;2023-12-20T09:00:31;1.63;;;1.40;;
37164;SDS011;23057;48.554;14.454;2023-12-20T09:03:02;1.77;;;1.63;;
37164;SDS011;23057;48.554;14.454;2023-12-20T09:05:33;2.10;;;1.73;;
37164;SDS011;23057;48.554;14.454;2023-12-20T09:08:04;1.40;;;1.30;;
37164;SDS011;23057;48.554;14.454;2023-12-20T09:10:37;2.40;;;1.40;;
37164;SDS011;23057;48.554;14.454;2023-12-20T09:13:08;1.48;;;1.27;;
37164;SDS011;23057;48.554;14.454;2023-12-20T09:15:39;1.35;;;1.23;;
37164;SDS011;23057;48.554;14.454;2023-12-20T09:18:10;1.25;;;1.15;;
37164;SDS011;23057;48.554;14.454;2023-12-20T09:20:41;1.50;;;1.40;;
37164;SDS011;23057;48.554;14.454;2023-12-20T09:23:12;1.48;;;1.23;;
37164;SDS011;23057;48.554;14.454;2023-12-20T09:25:42;3.78;;;1.20;;
37164;SDS011;23057;48.554;14.454;2023-12-20T09:28:14;1.30;;;1.20;;
37164;SDS011;23057;48.554;14.454;2023-12-20T09:30:44;1.10;;;1.00;;
37164;SDS011;23057;48.554;14.454;2023-12-20T09:33:16;1.17;;;1.00;;
37164;SDS011;23057;48.554;14.454;2023-12-20T09:35:46;1.65;;;1.20;;
37164;SDS011;23057;48.554;14.454;2023-12-20T09:38:17;1.00;;;0.95;;
37164;SDS011;23057;48.554;14.454;2023-12-20T09:40:48;1.52;;;1.25;;
37164;SDS011;23057;48.554;14.454;2023-12-20T09:43:20;0.82;;;0.82;;
37164;SDS011;23057;48.554;14.454;2023-12-20T09:45:55;1.67;;;1.00;;
37164;SDS011;23057;48.554;14.454;2023-12-20T09:48:33;1.35;;;1.10;;
37164;SDS011;23057;48.554;14.454;2023-12-20T09:51:06;1.30;;;1.00;;
37164;SDS011;23057;48.554;14.454;2023-12-20T09:53:37;1.58;;;1.20;;
37164;SDS011;23057;48.554;14.454;2023-12-20T09:56:12;1.95;;;1.20;;
37164;SDS011;23057;48.554;14.454;2023-12-20T09:58:44;1.25;;;1.15;;
37164;SDS011;23057;48.554;14.454;2023-12-20T10:01:15;1.48;;;1.20;;
37164;SDS011;23057;48.554;14.454;2023-12-20T10:03:48;1.92;;;1.48;;
37164;SDS011;23057;48.554;14.454;2023-12-20T10:06:24;1.45;;;1.13;;
37164;SDS011;23057;48.554;14.454;2023-12-20T10:08:55;1.45;;;1.10;;
37164;SDS011;23057;48.554;14.454;2023-12-20T10:11:26;1.50;;;1.20;;
37164;SDS011;23057;48.554;14.454;2023-12-20T10:14:00;1.77;;;1.30;;
37164;SDS011;23057;48.554;14.454;2023-12-20T10:16:32;1.70;;;1.35;;
37164;SDS011;23057;48.554;14.454;2023-12-20T10:19:04;1.90;;;1.40;;
37164;SDS011;23057;48.554;14.454;2023-12-20T10:21:35;1.50;;;1.00;;
37164;SDS011;23057;48.554;14.454;2023-12-20T10:24:05;1.33;;;1.17;;
37164;SDS011;23057;48.554;14.454;2023-12-20T10:26:36;1.90;;;1.17;;
37164;SDS011;23057;48.554;14.454;2023-12-20T10:29:08;1.35;;;1.10;;
37164;SDS011;23057;48.554;14.454;2023-12-20T10:31:40;1.50;;;1.10;;
37164;SDS011;23057;48.554;14.454;2023-12-20T10:34:12;1.58;;;1.02;;
37164;SDS011;23057;48.554;14.454;2023-12-20T10:36:43;1.02;;;0.93;;
37164;SDS011;23057;48.554;14.454;2023-12-20T10:39:15;2.03;;;1.00;;
37164;SDS011;23057;48.554;14.454;2023-12-20T10:41:50;0.80;;;0.80;;
37164;SDS011;23057;48.554;14.454;2023-12-20T10:44:21;1.48;;;1.05;;
37164;SDS011;23057;48.554;14.454;2023-12-20T10:46:52;2.33;;;1.10;;
37164;SDS011;23057;48.554;14.454;2023-12-20T10:49:27;1.55;;;1.00;;
37164;SDS011;23057;48.554;14.454;2023-12-20T10:52:02;2.50;;;1.02;;
37164;SDS011;23057;48.554;14.454;2023-12-20T10:54:35;2.20;;;0.90;;
37164;SDS011;23057;48.554;14.454;2023-12-20T10:57:07;1.50;;;1.05;;
37164;SDS011;23057;48.554;14.454;2023-12-20T10:59:38;2.75;;;0.85;;
37164;SDS011;23057;48.554;14.454;2023-12-20T11:02:11;1.13;;;1.02;;
37164;SDS011;23057;48.554;14.454;2023-12-20T11:08:12;1.20;;;1.10;;
37164;SDS011;23057;48.554;14.454;2023-12-20T11:11:20;0.70;;;0.70;;
37164;SDS011;23057;48.554;14.454;2023-12-20T11:14:23;0.98;;;0.88;;
37164;SDS011;23057;48.554;14.454;2023-12-20T11:17:11;1.25;;;1.10;;
37164;SDS011;23057;48.554;14.454;2023-12-20T11:22:27;1.42;;;1.30;;
37164;SDS011;23057;48.554;14.454;2023-12-20T11:25:08;0.93;;;0.80;;
37164;SDS011;23057;48.554;14.454;2023-12-20T11:27:41;0.75;;;0.75;;
37164;SDS011;23057;48.554;14.454;2023-12-20T11:30:14;1.10;;;0.90;;
37164;SDS011;23057;48.554;14.454;2023-12-20T11:32:45;1.13;;;1.02;;
37164;SDS011;23057;48.554;14.454;2023-12-20T11:35:18;0.80;;;0.80;;
37164;SDS011;23057;48.554;14.454;2023-12-20T11:37:50;1.50;;;1.30;;
37164;SDS011;23057;48.554;14.454;2023-12-20T11:40:22;1.35;;;1.20;;
37164;SDS011;23057;48.554;14.454;2023-12-20T11:42:55;2.55;;;1.45;;
37164;SDS011;23057;48.554;14.454;2023-12-20T11:45:26;1.63;;;1.35;;
37164;SDS011;23057;48.554;14.454;2023-12-20T11:47:58;1.33;;;1.23;;
37164;SDS011;23057;48.554;14.454;2023-12-20T11:50:29;0.80;;;0.80;;
37164;SDS011;23057;48.554;14.454;2023-12-20T11:53:00;0.80;;;0.80;;
37164;SDS011;23057;48.554;14.454;2023-12-20T11:55:31;3.05;;;2.33;;
37164;SDS011;23057;48.554;14.454;2023-12-20T11:58:04;10.50;;;4.90;;
37164;SDS011;23057;48.554;14.454;2023-12-20T12:00:35;6.95;;;3.67;;
37164;SDS011;23057;48.554;14.454;2023-12-20T12:03:06;4.25;;;1.60;;
37164;SDS011;23057;48.554;14.454;2023-12-20T12:05:37;8.85;;;4.10;;
37164;SDS011;23057;48.554;14.454;2023-12-20T12:08:09;7.72;;;4.13;;
37164;SDS011;23057;48.554;14.454;2023-12-20T12:10:40;7.53;;;3.75;;
37164;SDS011;23057;48.554;14.454;2023-12-20T12:13:11;3.47;;;2.08;;
37164;SDS011;23057;48.554;14.454;2023-12-20T12:15:44;5.57;;;2.65;;
37164;SDS011;23057;48.554;14.454;2023-12-20T12:18:15;4.05;;;2.15;;
37164;SDS011;23057;48.554;14.454;2023-12-20T12:20:47;7.57;;;3.38;;
37164;SDS011;23057;48.554;14.454;2023-12-20T12:23:24;1.67;;;1.10;;
37164;SDS011;23057;48.554;14.454;2023-12-20T12:25:55;3.50;;;2.03;;
37164;SDS011;23057;48.554;14.454;2023-12-20T12:28:26;6.40;;;3.92;;
37164;SDS011;23057;48.554;14.454;2023-12-20T12:31:01;12.45;;;6.22;;
37164;SDS011;23057;48.554;14.454;2023-12-20T12:33:33;0.95;;;0.90;;
37164;SDS011;23057;48.554;14.454;2023-12-20T12:36:04;1.52;;;1.00;;
37164;SDS011;23057;48.554;14.454;2023-12-20T12:38:37;3.60;;;2.15;;
37164;SDS011;23057;48.554;14.454;2023-12-20T12:41:08;5.35;;;2.55;;
37164;SDS011;23057;48.554;14.454;2023-12-20T12:43:40;9.32;;;5.20;;
37164;SDS011;23057;48.554;14.454;2023-12-20T12:46:11;5.95;;;3.65;;
37164;SDS011;23057;48.554;14.454;2023-12-20T12:48:42;9.07;;;3.70;;
37164;SDS011;23057;48.554;14.454;2023-12-20T12:51:13;3.78;;;2.15;;
37164;SDS011;23057;48.554;14.454;2023-12-20T12:53:44;2.78;;;1.70;;
37164;SDS011;23057;48.554;14.454;2023-12-20T12:56:15;3.80;;;2.22;;
37164;SDS011;23057;48.554;14.454;2023-12-20T12:58:46;3.28;;;2.00;;
37164;SDS011;23057;48.554;14.454;2023-12-20T13:01:17;3.10;;;2.05;;
37164;SDS011;23057;48.554;14.454;2023-12-20T13:03:48;4.32;;;2.53;;
37164;SDS011;23057;48.554;14.454;2023-12-20T13:06:19;1.90;;;1.63;;
37164;SDS011;23057;48.554;14.454;2023-12-20T13:08:50;3.75;;;1.90;;
37164;SDS011;23057;48.554;14.454;2023-12-20T13:11:21;2.65;;;1.70;;
37164;SDS011;23057;48.554;14.454;2023-12-20T13:13:51;2.17;;;1.60;;
37164;SDS011;23057;48.554;14.454;2023-12-20T13:16:23;1.83;;;1.42;;
37164;SDS011;23057;48.554;14.454;2023-12-20T13:18:54;3.17;;;1.60;;
37164;SDS011;23057;48.554;14.454;2023-12-20T13:21:26;1.92;;;1.30;;
37164;SDS011;23057;48.554;14.454;2023-12-20T13:23:56;3.60;;;2.25;;
37164;SDS011;23057;48.554;14.454;2023-12-20T13:26:27;5.13;;;2.47;;
37164;SDS011;23057;48.554;14.454;2023-12-20T13:28:58;7.20;;;3.45;;
37164;SDS011;23057;48.554;14.454;2023-12-20T13:31:29;7.25;;;2.67;;
37164;SDS011;23057;48.554;14.454;2023-12-20T13:34:00;4.10;;;2.05;;
37164;SDS011;23057;48.554;14.454;2023-12-20T13:36:31;3.08;;;1.88;;
37164;SDS011;23057;48.554;14.454;2023-12-20T13:39:03;3.13;;;1.88;;
37164;SDS011;23057;48.554;14.454;2023-12-20T13:41:35;2.10;;;1.40;;
37164;SDS011;23057;48.554;14.454;2023-12-20T13:44:05;0.80;;;0.80;;
37164;SDS011;23057;48.554;14.454;2023-12-20T13:46:36;1.40;;;1.27;;
37164;SDS011;23057;48.554;14.454;2023-12-20T13:49:07;7.05;;;6.22;;
37164;SDS011;23057;48.554;14.454;2023-12-20T13:51:38;5.00;;;3.92;;
37164;SDS011;23057;48.554;14.454;2023-12-20T13:54:09;20.08;;;13.75;;
37164;SDS011;23057;48.554;14.454;2023-12-20T13:56:41;22.60;;;14.15;;
37164;SDS011;23057;48.554;14.454;2023-12-20T13:59:11;52.70;;;25.70;;
37164;SDS011;23057;48.554;14.454;2023-12-20T14:01:43;75.80;;;38.33;;
37164;SDS011;23057;48.554;14.454;2023-12-20T14:04:14;3.10;;;2.13;;
37164;SDS011;23057;48.554;14.454;2023-12-20T14:06:45;13.35;;;9.38;;
37164;SDS011;23057;48.554;14.454;2023-12-20T14:09:16;6.20;;;5.53;;
37164;SDS011;23057;48.554;14.454;2023-12-20T14:11:46;3.45;;;2.75;;
37164;SDS011;23057;48.554;14.454;2023-12-20T14:14:17;2.60;;;1.85;;
37164;SDS011;23057;48.554;14.454;2023-12-20T14:16:48;1.73;;;1.50;;
37164;SDS011;23057;48.554;14.454;2023-12-20T14:19:19;3.97;;;3.17;;
37164;SDS011;23057;48.554;14.454;2023-12-20T14:21:50;3.55;;;3.25;;
37164;SDS011;23057;48.554;14.454;2023-12-20T14:24:21;2.92;;;2.63;;
37164;SDS011;23057;48.554;14.454;2023-12-20T14:26:51;4.10;;;3.50;;
37164;SDS011;23057;48.554;14.454;2023-12-20T14:29:23;3.45;;;1.95;;
37164;SDS011;23057;48.554;14.454;2023-12-20T14:31:53;4.85;;;3.20;;
37164;SDS011;23057;48.554;14.454;2023-12-20T14:34:24;6.70;;;3.75;;
37164;SDS011;23057;48.554;14.454;2023-12-20T14:36:55;3.42;;;2.05;;
37164;SDS011;23057;48.554;14.454;2023-12-20T14:39:26;2.78;;;1.92;;
37164;SDS011;23057;48.554;14.454;2023-12-20T14:41:57;3.60;;;2.42;;
37164;SDS011;23057;48.554;14.454;2023-12-20T14:44:28;2.13;;;1.70;;
37164;SDS011;23057;48.554;14.454;2023-12-20T14:46:59;3.38;;;2.80;;
37164;SDS011;23057;48.554;14.454;2023-12-20T14:49:32;10.23;;;5.97;;
37164;SDS011;23057;48.554;14.454;2023-12-20T14:52:03;17.77;;;12.55;;
37164;SDS011;23057;48.554;14.454;2023-12-20T14:54:34;12.65;;;9.07;;
37164;SDS011;23057;48.554;14.454;2023-12-20T14:57:05;7.03;;;5.65;;
37164;SDS011;23057;48.554;14.454;2023-12-20T14:59:38;3.55;;;1.98;;
37164;SDS011;23057;48.554;14.454;2023-12-20T15:02:09;3.72;;;2.28;;
37164;SDS011;23057;48.554;14.454;2023-12-20T15:04:39;5.75;;;3.05;;